Time;durP1;ratioP1;P1;durP2;ratioP2;P2;SDS_P1;SDS_P2;PMS_P1;PMS_P2;Temp;Humidity;BMP_temperature;BMP_pressure;BME280_temperature;BME280_humidity;BME280_pressure;Samples;Min_cycle;Max_cycle;Signal;HPM_P1;HPM_P2
2022/10/08 00:00:45;;;;;;;6.38;1.80;;;12.80;99.90;;;;;;5072226;28;20056;-68
2022/10/08 00:03:16;;;;;;;5.88;1.77;;;12.80;99.90;;;;;;5070869;28;20056;-67
2022/10/08 00:05:42;;;;;;;4.00;1.50;;;12.90;99.90;;;;;;5072329;28;20055;-68
2022/10/08 00:08:09;;;;;;;5.15;2.15;;;12.80;99.90;;;;;;5072304;28;20099;-67
2022/10/08 00:10:35;;;;;;;3.47;1.67;;;12.80;99.90;;;;;;5071721;28;20049;-68
2022/10/08 00:13:03;;;;;;;5.40;1.88;;;12.70;99.90;;;;;;5071923;28;20052;-67
2022/10/08 00:15:29;;;;;;;5.93;1.90;;;12.70;99.90;;;;;;5070518;28;20052;-67
2022/10/08 00:17:54;;;;;;;4.40;1.50;;;12.80;99.90;;;;;;5072148;28;20382;-67
2022/10/08 00:20:21;;;;;;;4.63;1.52;;;12.70;99.90;;;;;;5071960;28;20052;-67
2022/10/08 00:22:47;;;;;;;5.65;1.60;;;12.70;99.90;;;;;;5071088;28;20051;-68
2022/10/08 00:25:13;;;;;;;3.25;1.58;;;12.70;99.90;;;;;;5075962;28;20047;-68
2022/10/08 00:27:39;;;;;;;5.07;1.60;;;12.60;99.90;;;;;;5091964;28;20105;-67
2022/10/08 00:30:05;;;;;;;3.40;1.48;;;12.60;99.90;;;;;;5091750;28;20044;-67
2022/10/08 00:32:31;;;;;;;4.95;1.70;;;12.60;99.90;;;;;;5092084;28;20044;-66
2022/10/08 00:34:56;;;;;;;5.43;1.58;;;12.60;99.90;;;;;;5092013;28;20055;-66
2022/10/08 00:37:24;;;;;;;6.55;1.90;;;12.60;99.90;;;;;;5091845;28;20048;-67
2022/10/08 00:39:50;;;;;;;4.63;1.92;;;12.60;99.90;;;;;;5090938;28;20052;-67
2022/10/08 00:42:16;;;;;;;4.57;1.52;;;12.60;99.90;;;;;;5091722;28;20043;-66
2022/10/08 00:44:53;;;;;;;4.63;1.75;;;12.60;99.90;;;;;;5091888;28;20560;-67
2022/10/08 00:47:25;;;;;;;4.55;1.67;;;12.50;99.90;;;;;;5091421;28;20055;-66
2022/10/08 00:49:54;;;;;;;5.60;1.98;;;12.40;99.90;;;;;;5091904;28;20052;-67
2022/10/08 00:52:21;;;;;;;5.57;2.22;;;12.40;99.90;;;;;;5091294;28;20075;-67
2022/10/08 00:54:50;;;;;;;5.90;1.80;;;12.30;99.90;;;;;;5091722;28;20048;-67
2022/10/08 00:57:17;;;;;;;5.95;2.10;;;12.20;99.90;;;;;;5091384;28;20493;-66
2022/10/08 00:59:42;;;;;;;5.75;2.33;;;12.20;99.90;;;;;;5091194;28;20060;-66
2022/10/08 01:02:10;;;;;;;4.47;2.15;;;12.10;99.90;;;;;;5091514;28;20557;-67
2022/10/08 01:04:38;;;;;;;3.80;1.95;;;12.10;99.90;;;;;;5090321;28;20500;-67
2022/10/08 01:07:31;;;;;;;4.55;2.20;;;12.00;99.90;;;;;;5091497;28;20044;-67
2022/10/08 01:10:05;;;;;;;5.63;2.00;;;12.00;99.90;;;;;;5090263;28;20499;-67
2022/10/08 01:12:53;;;;;;;4.30;2.33;;;11.90;99.90;;;;;;5091288;28;20789;-68
2022/10/08 01:15:30;;;;;;;7.47;3.03;;;11.90;99.90;;;;;;5091542;28;20401;-67
2022/10/08 01:18:18;;;;;;;6.32;2.40;;;11.90;99.90;;;;;;5078723;28;20413;-67
2022/10/08 01:21:03;;;;;;;7.95;2.95;;;11.90;99.90;;;;;;5071437;28;20277;-67
2022/10/08 01:23:56;;;;;;;6.82;2.53;;;11.90;99.90;;;;;;5070413;28;20044;-67
2022/10/08 01:26:41;;;;;;;3.88;2.40;;;11.90;99.90;;;;;;5084685;28;20044;-68
2022/10/08 01:29:15;;;;;;;5.25;2.60;;;11.80;99.90;;;;;;5090858;28;20508;-67
2022/10/08 01:31:49;;;;;;;6.40;2.58;;;11.80;99.90;;;;;;5090951;28;20054;-67
2022/10/08 01:34:22;;;;;;;4.70;2.40;;;11.80;99.90;;;;;;5091210;28;20055;-66
2022/10/08 01:36:50;;;;;;;5.53;2.63;;;11.80;99.90;;;;;;5091021;28;20052;-67
2022/10/08 01:39:21;;;;;;;6.15;2.28;;;11.80;99.90;;;;;;5090804;28;20123;-67
2022/10/08 01:41:52;;;;;;;4.32;2.30;;;11.80;99.90;;;;;;5091190;28;20120;-66
2022/10/08 01:44:32;;;;;;;5.40;2.22;;;11.80;99.90;;;;;;5091105;28;20404;-67
2022/10/08 01:47:02;;;;;;;4.70;2.38;;;11.80;99.90;;;;;;5091190;28;20390;-67
2022/10/08 01:49:33;;;;;;;3.15;2.22;;;11.80;99.90;;;;;;5089813;28;20048;-67
2022/10/08 01:52:07;;;;;;;5.50;2.20;;;11.80;99.90;;;;;;5090611;28;20598;-68
2022/10/08 01:54:34;;;;;;;3.10;1.95;;;11.80;99.90;;;;;;5090965;28;20412;-67
2022/10/08 01:57:04;;;;;;;5.65;2.60;;;11.80;99.90;;;;;;5089952;28;20052;-68
2022/10/08 01:59:42;;;;;;;4.80;1.90;;;11.80;99.90;;;;;;5091218;28;20059;-67
2022/10/08 02:02:23;;;;;;;4.70;2.30;;;11.80;99.90;;;;;;5090887;28;20048;-67
2022/10/08 02:04:53;;;;;;;6.15;2.45;;;11.70;99.90;;;;;;5090997;28;20113;-68
2022/10/08 02:07:23;;;;;;;4.55;2.15;;;11.80;99.90;;;;;;5091143;28;20048;-67
2022/10/08 02:10:02;;;;;;;4.47;2.47;;;11.80;99.90;;;;;;5091022;28;20050;-67
2022/10/08 02:12:28;;;;;;;5.20;2.70;;;11.80;99.90;;;;;;5089968;28;20063;-67
2022/10/08 02:14:55;;;;;;;5.18;2.60;;;11.80;99.90;;;;;;5090524;28;20048;-67
2022/10/08 02:17:54;;;;;;;3.72;2.47;;;11.80;99.90;;;;;;5083147;28;20048;-67
2022/10/08 02:20:29;;;;;;;4.10;2.35;;;11.80;99.90;;;;;;5068197;28;20103;-67
2022/10/08 02:23:03;;;;;;;4.65;2.10;;;11.70;99.90;;;;;;5069909;28;20045;-67
2022/10/08 02:25:41;;;;;;;3.58;2.50;;;11.80;99.90;;;;;;5077201;28;20142;-67
2022/10/08 02:28:19;;;;;;;6.32;2.78;;;11.80;99.90;;;;;;5090488;28;20446;-67
2022/10/08 02:30:51;;;;;;;7.75;2.53;;;11.80;99.90;;;;;;5090707;28;20492;-67
2022/10/08 02:33:38;;;;;;;3.83;2.33;;;11.80;99.90;;;;;;5090716;28;20435;-68
2022/10/08 02:36:07;;;;;;;5.57;2.50;;;11.80;99.90;;;;;;5088883;28;20553;-67
2022/10/08 02:38:45;;;;;;;3.30;2.28;;;11.80;99.90;;;;;;5091917;28;20052;-69
2022/10/08 02:41:13;;;;;;;4.18;2.35;;;11.80;99.90;;;;;;5093097;28;20124;-67
2022/10/08 02:43:46;;;;;;;3.10;2.03;;;11.80;99.90;;;;;;5094090;28;20059;-67
2022/10/08 02:46:23;;;;;;;3.53;2.30;;;11.70;99.90;;;;;;5093983;28;20210;-67
2022/10/08 02:49:04;;;;;;;4.18;2.55;;;11.70;99.90;;;;;;5094076;28;20738;-66
2022/10/08 02:51:33;;;;;;;5.32;2.50;;;11.70;99.90;;;;;;5093501;28;20469;-67
2022/10/08 02:54:01;;;;;;;5.20;2.22;;;11.70;99.90;;;;;;5092740;28;20078;-67
2022/10/08 02:56:52;;;;;;;3.13;2.10;;;11.70;99.90;;;;;;5093656;28;20097;-68
2022/10/08 02:59:19;;;;;;;2.90;1.70;;;11.70;99.90;;;;;;5093914;28;20102;-66
2022/10/08 03:01:49;;;;;;;4.32;1.92;;;11.70;99.90;;;;;;5092278;28;20504;-67
2022/10/08 03:04:43;;;;;;;3.75;2.00;;;11.70;99.90;;;;;;5093796;28;20052;-66
2022/10/08 03:07:11;;;;;;;3.65;1.92;;;11.60;99.90;;;;;;5090421;28;20055;-67
2022/10/08 03:09:43;;;;;;;3.65;2.20;;;11.70;99.90;;;;;;5092157;28;20052;-67
2022/10/08 03:12:09;;;;;;;3.58;1.80;;;11.60;99.90;;;;;;5093432;28;20052;-67
2022/10/08 03:14:39;;;;;;;2.50;1.67;;;11.60;99.90;;;;;;5093511;28;20083;-67
2022/10/08 03:17:07;;;;;;;2.50;1.70;;;11.60;99.90;;;;;;5086587;28;20508;-67
2022/10/08 03:19:33;;;;;;;3.15;1.60;;;11.60;99.90;;;;;;5055352;28;20048;-67
2022/10/08 03:22:00;;;;;;;3.25;1.98;;;11.50;99.90;;;;;;5072887;28;20052;-67
2022/10/08 03:24:26;;;;;;;3.05;2.00;;;11.50;99.90;;;;;;5071732;28;20078;-67
2022/10/08 03:26:52;;;;;;;4.47;2.10;;;11.50;99.90;;;;;;5091291;28;20234;-66
2022/10/08 03:29:19;;;;;;;3.80;1.90;;;11.60;99.90;;;;;;5092212;28;20055;-67
2022/10/08 03:31:47;;;;;;;3.85;2.22;;;11.60;99.90;;;;;;5092706;28;20373;-67
2022/10/08 03:34:13;;;;;;;5.07;2.20;;;11.50;99.90;;;;;;5092167;28;20637;-66
2022/10/08 03:36:39;;;;;;;4.07;2.25;;;11.60;99.90;;;;;;5092598;28;20040;-67
2022/10/08 03:39:05;;;;;;;4.35;1.95;;;11.60;99.90;;;;;;5092131;28;20063;-68
2022/10/08 03:41:31;;;;;;;5.85;2.30;;;11.50;99.90;;;;;;5077300;28;20154;-66
2022/10/08 03:43:58;;;;;;;4.47;2.10;;;11.50;99.90;;;;;;5072365;28;20076;-67
2022/10/08 03:46:24;;;;;;;3.42;2.10;;;11.40;99.90;;;;;;5072813;28;20136;-67
2022/10/08 03:48:50;;;;;;;3.60;2.05;;;11.50;99.90;;;;;;5071930;28;20044;-67
2022/10/08 03:51:17;;;;;;;3.00;1.90;;;11.30;99.90;;;;;;5072547;28;20123;-69
2022/10/08 03:53:43;;;;;;;3.78;1.92;;;11.20;99.90;;;;;;5071134;28;20497;-66
2022/10/08 03:56:12;;;;;;;5.20;2.10;;;11.10;99.90;;;;;;5072258;28;20050;-67
2022/10/08 03:58:38;;;;;;;4.20;2.38;;;11.00;99.90;;;;;;5072327;28;20066;-66
2022/10/08 04:01:06;;;;;;;3.78;2.30;;;11.00;99.90;;;;;;5072513;28;20037;-67
2022/10/08 04:03:33;;;;;;;5.03;2.20;;;10.90;99.90;;;;;;5072407;28;20181;-67
2022/10/08 04:05:59;;;;;;;4.55;1.98;;;10.80;99.90;;;;;;5072374;28;20092;-67
2022/10/08 04:08:25;;;;;;;5.43;2.33;;;10.80;99.90;;;;;;5072188;28;20132;-67
2022/10/08 04:10:52;;;;;;;3.55;2.40;;;10.70;99.90;;;;;;5072056;28;20401;-67
2022/10/08 04:13:18;;;;;;;4.15;3.03;;;10.70;99.90;;;;;;5070695;28;20493;-67
2022/10/08 04:15:47;;;;;;;4.95;2.40;;;10.80;99.90;;;;;;5070699;28;20455;-67
2022/10/08 04:18:13;;;;;;;6.07;2.90;;;10.90;99.90;;;;;;5087020;28;20085;-67
2022/10/08 04:20:43;;;;;;;3.70;2.17;;;10.90;99.90;;;;;;5092187;28;20500;-67
2022/10/08 04:23:09;;;;;;;4.15;2.70;;;10.90;99.90;;;;;;5091823;28;20492;-67
2022/10/08 04:25:35;;;;;;;5.75;2.70;;;11.00;99.90;;;;;;5084306;28;20461;-67
2022/10/08 04:28:03;;;;;;;4.05;2.17;;;11.00;99.90;;;;;;5071207;28;20052;-67
2022/10/08 04:30:29;;;;;;;5.00;2.40;;;11.00;99.90;;;;;;5070579;28;20048;-66
2022/10/08 04:32:55;;;;;;;5.03;2.65;;;11.00;99.90;;;;;;5071794;28;20047;-67
2022/10/08 04:35:21;;;;;;;4.35;2.47;;;11.00;99.90;;;;;;5070499;28;20059;-67
2022/10/08 04:37:47;;;;;;;3.97;2.42;;;11.00;99.90;;;;;;5071630;28;20056;-67
2022/10/08 04:40:12;;;;;;;5.03;2.80;;;11.00;99.90;;;;;;5070576;28;20064;-67
2022/10/08 04:42:38;;;;;;;5.57;2.83;;;11.00;99.90;;;;;;5053773;28;20462;-68
2022/10/08 04:45:04;;;;;;;5.22;3.45;;;11.00;99.90;;;;;;5070564;28;20055;-68
2022/10/08 04:47:30;;;;;;;5.18;3.05;;;11.10;99.90;;;;;;5071574;28;20047;-68
2022/10/08 04:49:55;;;;;;;3.85;2.63;;;11.00;99.90;;;;;;5070302;28;20063;-67
2022/10/08 04:52:21;;;;;;;6.43;3.08;;;11.00;99.90;;;;;;5071067;28;20048;-67
2022/10/08 04:54:47;;;;;;;4.40;3.05;;;11.00;99.90;;;;;;5071565;28;20048;-67
2022/10/08 04:57:13;;;;;;;5.95;2.83;;;11.10;99.90;;;;;;5071308;28;20131;-68
2022/10/08 04:59:38;;;;;;;5.13;2.80;;;11.00;99.90;;;;;;5070232;28;20140;-67
2022/10/08 05:02:04;;;;;;;5.57;2.75;;;11.00;99.90;;;;;;5070471;28;20060;-68
2022/10/08 05:04:30;;;;;;;5.00;2.53;;;11.00;99.90;;;;;;5071217;28;20115;-68
2022/10/08 05:06:55;;;;;;;5.15;2.85;;;11.00;99.90;;;;;;5071298;28;20052;-68
2022/10/08 05:09:21;;;;;;;5.88;3.00;;;11.00;99.90;;;;;;5071378;28;20048;-68
2022/10/08 05:11:48;;;;;;;6.50;3.00;;;11.10;99.90;;;;;;5071349;28;20045;-67
2022/10/08 05:14:14;;;;;;;4.95;2.75;;;11.10;99.90;;;;;;5071069;28;20110;-67
2022/10/08 05:16:39;;;;;;;5.05;2.75;;;11.20;99.90;;;;;;5073105;28;20485;-66
2022/10/08 05:19:05;;;;;;;5.72;2.58;;;11.20;99.90;;;;;;5091393;28;20052;-66
2022/10/08 05:21:31;;;;;;;5.95;2.85;;;11.20;99.90;;;;;;5091411;28;20048;-66
2022/10/08 05:23:58;;;;;;;3.60;2.05;;;11.30;99.90;;;;;;5091048;28;20130;-66
2022/10/08 05:26:26;;;;;;;4.20;2.60;;;11.20;99.90;;;;;;5076618;28;20435;-67
2022/10/08 05:28:55;;;;;;;4.88;2.47;;;11.20;99.90;;;;;;5071204;28;20055;-67
2022/10/08 05:31:22;;;;;;;5.30;2.60;;;11.20;99.90;;;;;;5071084;28;20127;-66
2022/10/08 05:33:47;;;;;;;4.13;2.60;;;11.20;99.90;;;;;;5070951;28;20090;-68
2022/10/08 05:36:19;;;;;;;4.00;2.35;;;11.20;99.90;;;;;;5070683;28;20052;-68
2022/10/08 05:38:45;;;;;;;4.90;2.50;;;11.10;99.90;;;;;;5070721;28;20048;-67
2022/10/08 05:41:20;;;;;;;7.28;2.67;;;11.10;99.90;;;;;;5070705;28;20044;-67
2022/10/08 05:43:46;;;;;;;3.97;2.30;;;11.10;99.90;;;;;;5070831;28;20041;-68
2022/10/08 05:46:12;;;;;;;4.22;2.25;;;11.10;99.90;;;;;;5070745;28;20053;-68
2022/10/08 05:48:39;;;;;;;4.40;2.13;;;11.00;99.90;;;;;;5071233;28;20105;-68
2022/10/08 05:51:16;;;;;;;4.35;2.35;;;11.00;99.90;;;;;;5070225;28;20159;-67
2022/10/08 05:53:46;;;;;;;4.75;2.25;;;10.90;99.90;;;;;;5069222;28;20091;-69
2022/10/08 05:56:14;;;;;;;4.22;2.10;;;10.90;99.90;;;;;;5070696;28;20064;-67
2022/10/08 05:58:41;;;;;;;3.95;2.13;;;10.90;99.90;;;;;;5070695;28;20108;-67
2022/10/08 06:01:12;;;;;;;5.03;2.13;;;10.90;99.90;;;;;;5070691;28;20494;-68
2022/10/08 06:03:38;;;;;;;5.78;2.25;;;10.80;99.90;;;;;;5070633;28;20056;-67
2022/10/08 06:06:06;;;;;;;6.40;2.30;;;10.80;99.90;;;;;;5070597;28;20056;-67
2022/10/08 06:08:33;;;;;;;5.32;1.98;;;10.70;99.90;;;;;;5069413;28;20037;-67
2022/10/08 06:10:59;;;;;;;3.78;1.73;;;10.70;99.90;;;;;;5070723;28;20041;-67
2022/10/08 06:13:25;;;;;;;4.00;1.80;;;10.70;99.90;;;;;;5073534;28;20366;-68
2022/10/08 06:15:55;;;;;;;6.18;1.85;;;10.70;99.90;;;;;;5074522;28;20044;-68
2022/10/08 06:18:22;;;;;;;3.80;1.60;;;10.60;99.90;;;;;;5090492;28;20044;-67
2022/10/08 06:20:48;;;;;;;5.03;1.73;;;10.60;99.90;;;;;;5094608;28;20047;-67
2022/10/08 06:23:13;;;;;;;3.53;1.48;;;10.60;99.90;;;;;;5094138;28;20040;-67
2022/10/08 06:25:39;;;;;;;5.07;1.95;;;10.60;99.90;;;;;;5086046;28;20124;-67
2022/10/08 06:28:05;;;;;;;5.82;1.70;;;10.60;99.90;;;;;;5072841;28;20044;-67
2022/10/08 06:30:30;;;;;;;3.08;2.00;;;10.60;99.90;;;;;;5073967;28;20063;-67
2022/10/08 06:32:56;;;;;;;4.50;1.77;;;10.60;99.90;;;;;;5074369;28;20119;-68
2022/10/08 06:35:22;;;;;;;4.80;1.90;;;10.60;99.90;;;;;;5074174;28;20135;-67
2022/10/08 06:37:47;;;;;;;5.03;2.10;;;10.60;99.90;;;;;;5072967;28;20045;-67
2022/10/08 06:40:13;;;;;;;4.78;2.00;;;10.70;99.90;;;;;;5072996;28;20060;-68
2022/10/08 06:42:39;;;;;;;8.20;2.70;;;10.80;99.90;;;;;;5073900;28;20544;-67
2022/10/08 06:45:05;;;;;;;4.28;2.40;;;10.90;99.90;;;;;;5073794;28;20059;-67
2022/10/08 06:47:31;;;;;;;5.95;2.25;;;11.00;99.90;;;;;;5073694;28;20439;-67
2022/10/08 06:49:57;;;;;;;5.75;2.22;;;11.10;99.90;;;;;;5073817;28;20044;-68
2022/10/08 06:52:23;;;;;;;5.65;3.03;;;11.10;99.90;;;;;;5073402;28;20071;-65
2022/10/08 06:54:49;;;;;;;3.70;2.30;;;11.10;99.90;;;;;;5073014;28;20329;-62
2022/10/08 06:57:15;;;;;;;4.03;2.63;;;11.20;99.90;;;;;;5073618;28;20060;-64
2022/10/08 06:59:41;;;;;;;6.35;2.55;;;11.20;99.90;;;;;;5073361;28;20056;-64
2022/10/08 07:02:09;;;;;;;6.30;2.50;;;11.20;99.90;;;;;;5072213;28;20092;-65
2022/10/08 07:04:35;;;;;;;4.65;2.67;;;11.20;99.90;;;;;;5073581;28;20052;-65
2022/10/08 07:07:01;;;;;;;4.90;2.53;;;11.20;99.90;;;;;;5073511;28;20452;-65
2022/10/08 07:09:26;;;;;;;5.30;2.72;;;11.30;99.90;;;;;;5073398;28;20048;-64
2022/10/08 07:11:52;;;;;;;7.30;2.45;;;11.30;99.90;;;;;;5073151;28;20059;-65
2022/10/08 07:14:18;;;;;;;6.72;2.55;;;11.30;99.90;;;;;;5072313;28;20490;-65
2022/10/08 07:16:43;;;;;;;4.18;2.08;;;11.40;99.90;;;;;;5071753;28;20049;-65
2022/10/08 07:19:09;;;;;;;7.68;2.63;;;11.40;99.90;;;;;;5072800;28;20048;-65
2022/10/08 07:21:35;;;;;;;4.28;2.58;;;11.40;99.90;;;;;;5073182;28;20050;-64
2022/10/08 07:24:00;;;;;;;6.03;2.88;;;11.40;99.90;;;;;;5071913;28;20506;-64
2022/10/08 07:26:29;;;;;;;7.10;2.38;;;11.50;99.90;;;;;;5072854;28;20477;-64
2022/10/08 07:29:01;;;;;;;5.28;2.53;;;11.50;99.90;;;;;;5073020;28;20056;-64
2022/10/08 07:31:31;;;;;;;4.97;2.60;;;11.60;99.90;;;;;;5072917;28;20044;-64
2022/10/08 07:33:58;;;;;;;4.50;2.40;;;11.60;99.90;;;;;;5072575;28;20447;-64
2022/10/08 07:36:26;;;;;;;5.05;2.47;;;11.60;99.90;;;;;;5072644;28;20052;-64
2022/10/08 07:39:00;;;;;;;5.47;2.35;;;11.70;99.90;;;;;;5071745;28;20090;-64
2022/10/08 07:41:26;;;;;;;5.80;2.55;;;11.80;99.90;;;;;;5072971;28;20854;-64
2022/10/08 07:43:54;;;;;;;4.57;2.40;;;11.90;99.90;;;;;;5072670;28;20087;-64
2022/10/08 07:46:20;;;;;;;4.72;2.47;;;12.00;99.90;;;;;;5072546;28;20044;-64
2022/10/08 07:48:45;;;;;;;5.78;2.88;;;12.00;99.90;;;;;;5072481;28;20048;-64
2022/10/08 07:51:14;;;;;;;4.60;2.30;;;12.10;99.90;;;;;;5072537;28;20044;-63
2022/10/08 07:53:41;;;;;;;3.72;2.25;;;12.20;99.90;;;;;;5071773;28;20036;-63
2022/10/08 07:56:08;;;;;;;6.00;2.50;;;12.30;99.90;;;;;;5071927;28;20405;-64
2022/10/08 07:58:34;;;;;;;5.35;2.42;;;12.40;99.90;;;;;;5071280;28;20101;-64
2022/10/08 08:01:02;;;;;;;5.55;2.10;;;12.60;99.90;;;;;;5072142;28;20056;-64
2022/10/08 08:03:28;;;;;;;5.93;1.90;;;12.60;99.90;;;;;;5068956;28;20076;-64
2022/10/08 08:06:00;;;;;;;4.07;1.80;;;12.60;99.90;;;;;;5061884;28;20521;-65
2022/10/08 08:08:26;;;;;;;5.22;1.73;;;12.60;99.90;;;;;;5071798;28;20040;-66
2022/10/08 08:11:00;;;;;;;5.00;1.80;;;12.70;99.90;;;;;;5070245;28;20076;-67
2022/10/08 08:13:27;;;;;;;5.55;1.75;;;12.80;99.90;;;;;;5071332;28;20051;-65
2022/10/08 08:16:01;;;;;;;4.03;1.50;;;12.90;99.90;;;;;;5071373;28;20056;-66
2022/10/08 08:18:28;;;;;;;3.50;1.75;;;13.00;99.90;;;;;;5071377;28;20127;-66
2022/10/08 08:21:03;;;;;;;2.92;1.40;;;13.10;99.90;;;;;;5071435;28;20540;-65
2022/10/08 08:23:34;;;;;;;5.57;1.65;;;13.10;99.90;;;;;;5069802;28;20044;-64
2022/10/08 08:26:08;;;;;;;5.80;1.70;;;13.20;99.90;;;;;;5081982;28;20362;-65
2022/10/08 08:28:34;;;;;;;3.45;1.30;;;13.30;99.90;;;;;;5090976;28;20131;-64
2022/10/08 08:31:08;;;;;;;4.35;1.30;;;13.40;99.90;;;;;;5092047;28;20044;-64
2022/10/08 08:33:34;;;;;;;4.18;1.35;;;13.40;99.90;;;;;;5090961;28;20502;-64
2022/10/08 08:36:00;;;;;;;3.67;1.35;;;13.50;99.90;;;;;;5082900;28;20083;-66
2022/10/08 08:38:25;;;;;;;3.78;1.42;;;13.50;99.90;;;;;;5059974;28;20545;-65
2022/10/08 08:40:54;;;;;;;6.78;1.73;;;13.60;99.90;;;;;;5063492;28;20040;-65
2022/10/08 08:43:20;;;;;;;6.32;1.10;;;13.60;99.90;;;;;;5056189;28;20402;-64
2022/10/08 08:45:47;;;;;;;4.95;1.45;;;13.70;99.90;;;;;;5063464;28;20045;-65
2022/10/08 08:48:22;;;;;;;5.38;1.30;;;13.80;99.90;;;;;;5060065;28;20052;-66
2022/10/08 08:50:50;;;;;;;4.72;1.23;;;13.90;99.90;;;;;;5070095;28;20052;-66
2022/10/08 08:53:17;;;;;;;3.78;0.98;;;13.90;99.90;;;;;;5070157;28;20040;-66
2022/10/08 08:55:50;;;;;;;2.78;0.88;;;13.90;99.90;;;;;;5070987;28;20431;-66
2022/10/08 08:58:39;;;;;;;3.15;1.00;;;14.00;99.90;;;;;;5070846;28;20044;-66
2022/10/08 09:01:07;;;;;;;4.75;1.25;;;14.10;99.90;;;;;;5069823;28;20041;-66
2022/10/08 09:03:52;;;;;;;4.07;0.95;;;14.20;99.90;;;;;;5069432;28;20065;-66
2022/10/08 09:06:21;;;;;;;3.67;0.80;;;14.20;99.90;;;;;;5070895;28;20080;-65
2022/10/08 09:09:19;;;;;;;4.68;1.08;;;14.30;99.90;;;;;;5070718;28;20052;-65
2022/10/08 09:11:46;;;;;;;5.95;1.25;;;14.20;99.90;;;;;;5057238;28;20656;-65
2022/10/08 09:14:47;;;;;;;2.22;0.80;;;14.20;99.90;;;;;;5070774;28;20157;-65
2022/10/08 09:17:16;;;;;;;4.78;1.02;;;14.10;99.90;;;;;;5068328;28;20064;-66
2022/10/08 09:19:42;;;;;;;5.13;1.05;;;14.10;99.90;;;;;;5090783;28;20044;-67
2022/10/08 09:22:27;;;;;;;3.03;0.90;;;14.20;99.90;;;;;;5090740;28;20162;-65
2022/10/08 09:25:01;;;;;;;4.63;1.30;;;14.30;99.90;;;;;;5087390;28;20560;-66
2022/10/08 09:27:45;;;;;;;3.70;0.90;;;14.30;99.90;;;;;;5070077;28;20517;-66
2022/10/08 09:30:31;;;;;;;2.95;0.85;;;14.50;99.90;;;;;;5070229;28;20193;-65
2022/10/08 09:33:00;;;;;;;4.57;1.00;;;14.60;99.90;;;;;;5070616;28;20452;-66
2022/10/08 09:35:26;;;;;;;4.68;1.25;;;14.60;99.90;;;;;;5070941;28;20044;-66
2022/10/08 09:37:55;;;;;;;5.25;1.00;;;14.40;99.90;;;;;;5070595;28;20544;-66
2022/10/08 09:40:26;;;;;;;3.88;0.82;;;14.40;99.90;;;;;;5069991;28;20098;-65
2022/10/08 09:43:11;;;;;;;3.80;0.90;;;14.30;99.90;;;;;;5070243;28;20079;-65
2022/10/08 09:45:45;;;;;;;3.88;1.20;;;14.20;99.90;;;;;;5069422;28;20052;-65
2022/10/08 09:48:11;;;;;;;5.32;0.93;;;14.10;99.90;;;;;;5071464;28;20091;-67
2022/10/08 09:50:37;;;;;;;4.00;0.77;;;13.90;99.90;;;;;;5073874;28;20092;-65
2022/10/08 09:53:04;;;;;;;5.80;1.33;;;13.90;99.90;;;;;;5074220;28;20059;-65
2022/10/08 09:55:34;;;;;;;2.50;0.70;;;14.00;99.90;;;;;;5074245;28;20058;-65
2022/10/08 09:58:01;;;;;;;3.03;0.70;;;14.10;99.90;;;;;;5072724;28;20052;-65
2022/10/08 10:00:34;;;;;;;1.70;0.55;;;14.30;99.90;;;;;;5074083;28;20448;-65
2022/10/08 10:03:02;;;;;;;2.38;0.68;;;14.40;99.90;;;;;;5072781;28;20056;-66
2022/10/08 10:05:30;;;;;;;1.83;0.70;;;14.50;99.90;;;;;;5074381;28;20554;-66
2022/10/08 10:07:56;;;;;;;3.15;0.80;;;14.80;99.90;;;;;;5074272;28;20044;-66
2022/10/08 10:10:36;;;;;;;2.20;0.63;;;14.70;99.90;;;;;;5073991;28;20304;-65
2022/10/08 10:13:22;;;;;;;3.28;0.77;;;14.90;99.90;;;;;;5073977;28;20429;-63
2022/10/08 10:15:52;;;;;;;2.45;0.60;;;15.20;99.90;;;;;;5073824;28;20044;-63
2022/10/08 10:18:32;;;;;;;2.38;0.80;;;15.50;99.90;;;;;;5089229;28;20051;-63
2022/10/08 10:21:01;;;;;;;3.65;0.88;;;15.60;99.90;;;;;;5093903;28;20036;-64
2022/10/08 10:23:33;;;;;;;3.05;0.70;;;15.70;99.90;;;;;;5093680;28;20036;-63
2022/10/08 10:26:09;;;;;;;2.42;0.73;;;15.60;99.90;;;;;;5081819;28;20412;-63
2022/10/08 10:28:51;;;;;;;4.00;1.00;;;15.20;99.90;;;;;;5080643;28;20047;-63
2022/10/08 10:31:25;;;;;;;2.92;0.70;;;14.80;99.90;;;;;;5066830;28;20056;-65
2022/10/08 10:34:09;;;;;;;2.10;0.60;;;14.50;99.90;;;;;;5053916;28;20359;-65
2022/10/08 10:36:41;;;;;;;2.90;0.77;;;14.10;99.90;;;;;;5077194;28;20071;-65
2022/10/08 10:39:37;;;;;;;1.92;0.50;;;13.70;99.90;;;;;;5094071;28;20048;-65
2022/10/08 10:42:32;;;;;;;1.15;0.50;;;13.30;99.90;;;;;;5093471;28;20081;-65
2022/10/08 10:45:14;;;;;;;3.17;0.60;;;13.00;99.90;;;;;;5092210;28;20123;-64
2022/10/08 10:47:40;;;;;;;4.07;1.02;;;12.80;99.90;;;;;;5093688;28;20051;-65
2022/10/08 10:50:22;;;;;;;2.95;0.70;;;12.70;99.90;;;;;;5093508;28;20089;-65
2022/10/08 10:53:15;;;;;;;1.58;0.45;;;12.70;99.90;;;;;;5092525;28;20048;-64
2022/10/08 10:56:00;;;;;;;2.08;0.55;;;12.80;99.90;;;;;;5093623;28;20130;-64
2022/10/08 10:58:37;;;;;;;4.60;1.05;;;12.90;99.90;;;;;;5091672;28;20542;-64
2022/10/08 11:01:03;;;;;;;3.00;1.08;;;13.10;99.90;;;;;;5092907;28;20116;-64
2022/10/08 11:03:48;;;;;;;3.10;0.90;;;13.40;99.90;;;;;;5093584;28;20489;-64
2022/10/08 11:06:52;;;;;;;2.17;0.70;;;13.60;99.90;;;;;;5093057;28;20112;-65
2022/10/08 11:09:36;;;;;;;3.03;0.60;;;13.80;99.90;;;;;;5092346;28;20146;-62
2022/10/08 11:12:26;;;;;;;3.90;0.95;;;14.00;99.90;;;;;;5060572;28;20052;-64
2022/10/08 11:15:11;;;;;;;3.50;0.68;;;14.20;99.90;;;;;;5051513;28;20055;-64
2022/10/08 11:18:07;;;;;;;4.38;0.70;;;14.30;99.90;;;;;;5064491;28;20063;-64
2022/10/08 11:20:41;;;;;;;5.65;0.93;;;14.50;99.90;;;;;;5093347;28;20125;-63
2022/10/08 11:23:10;;;;;;;2.70;0.80;;;14.60;99.90;;;;;;5092770;28;20052;-64
2022/10/08 11:25:54;;;;;;;2.28;0.70;;;14.70;99.90;;;;;;5093245;28;20043;-64
2022/10/08 11:28:42;;;;;;;4.80;0.85;;;14.80;99.90;;;;;;5093122;28;20097;-64
2022/10/08 11:31:26;;;;;;;4.63;1.02;;;14.90;99.90;;;;;;5093143;28;20126;-64
2022/10/08 11:33:54;;;;;;;3.17;0.90;;;15.10;99.90;;;;;;5093182;28;20121;-64
2022/10/08 11:36:44;;;;;;;3.08;0.77;;;15.20;99.90;;;;;;5092813;28;20055;-64
2022/10/08 11:39:13;;;;;;;2.17;0.68;;;15.20;99.90;;;;;;5093165;28;20047;-64
2022/10/08 11:41:49;;;;;;;2.80;1.13;;;15.20;99.90;;;;;;5093125;28;20055;-64
2022/10/08 11:44:16;;;;;;;2.28;0.80;;;15.10;99.90;;;;;;5092719;28;20040;-64
2022/10/08 11:46:42;;;;;;;2.08;0.73;;;15.10;99.90;;;;;;5091676;28;20052;-64
2022/10/08 11:49:10;;;;;;;3.35;0.60;;;15.00;99.90;;;;;;5092849;28;20047;-64
2022/10/08 11:52:11;;;;;;;2.83;0.82;;;15.10;99.90;;;;;;5092816;28;20237;-64
2022/10/08 11:54:37;;;;;;;2.35;0.60;;;15.10;99.90;;;;;;5091682;28;20044;-64
2022/10/08 11:57:09;;;;;;;2.78;0.63;;;15.20;99.90;;;;;;5092136;28;20060;-63
2022/10/08 11:59:41;;;;;;;2.60;0.93;;;15.20;99.90;;;;;;5092550;28;20048;-64
2022/10/08 12:02:42;;;;;;;1.85;0.70;;;15.20;99.90;;;;;;5091414;28;20066;-64
2022/10/08 12:05:44;;;;;;;2.38;0.63;;;15.30;99.90;;;;;;5091855;28;20438;-64
2022/10/08 12:08:09;;;;;;;3.40;0.82;;;15.50;99.90;;;;;;5081441;28;20359;-64
2022/10/08 12:10:38;;;;;;;4.03;0.80;;;15.60;99.90;;;;;;5066572;28;20063;-64
2022/10/08 12:13:10;;;;;;;2.70;0.70;;;15.70;99.90;;;;;;5060485;28;20090;-64
2022/10/08 12:15:37;;;;;;;4.93;0.85;;;15.80;99.90;;;;;;5055060;28;20543;-63
2022/10/08 12:18:27;;;;;;;2.88;0.90;;;15.80;99.90;;;;;;5065179;28;20052;-66
2022/10/08 12:21:15;;;;;;;4.30;0.70;;;15.80;99.90;;;;;;5070135;28;20055;-63
2022/10/08 12:23:42;;;;;;;4.03;1.00;;;15.80;99.90;;;;;;5071238;28;20067;-64
2022/10/08 12:26:11;;;;;;;2.45;0.90;;;15.90;99.90;;;;;;5083468;28;20109;-64
2022/10/08 12:28:46;;;;;;;3.08;0.90;;;16.00;99.90;;;;;;5091146;28;20140;-63
2022/10/08 12:31:14;;;;;;;2.67;0.68;;;16.10;99.90;;;;;;5077656;28;20515;-63
2022/10/08 12:33:40;;;;;;;1.95;0.60;;;16.00;99.90;;;;;;5071179;28;20133;-63
2022/10/08 12:36:09;;;;;;;2.05;0.52;;;15.80;99.90;;;;;;5071377;28;20050;-63
2022/10/08 12:38:53;;;;;;;3.17;0.70;;;15.60;99.90;;;;;;5071750;28;20045;-63
2022/10/08 12:41:29;;;;;;;2.15;0.60;;;15.50;99.90;;;;;;5071296;28;20110;-63
2022/10/08 12:44:01;;;;;;;2.83;0.50;;;15.50;99.90;;;;;;5071144;28;20048;-64
2022/10/08 12:46:50;;;;;;;3.47;0.70;;;15.40;99.90;;;;;;5069946;28;20045;-63
2022/10/08 12:49:42;;;;;;;4.22;0.80;;;15.40;99.90;;;;;;5071273;28;20044;-63
2022/10/08 12:52:13;;;;;;;2.53;0.80;;;15.30;99.90;;;;;;5071260;28;20093;-63
2022/10/08 12:55:04;;;;;;;3.28;0.90;;;15.30;99.90;;;;;;5071261;28;20131;-63
2022/10/08 12:57:36;;;;;;;1.58;0.60;;;15.40;99.90;;;;;;5069748;28;20118;-63
2022/10/08 13:00:19;;;;;;;2.20;0.57;;;15.40;99.90;;;;;;5070983;28;20087;-63
2022/10/08 13:02:59;;;;;;;2.88;0.85;;;15.40;99.90;;;;;;5070717;28;20088;-62
2022/10/08 13:05:32;;;;;;;3.78;0.90;;;15.40;99.90;;;;;;5070541;28;20453;-62
2022/10/08 13:08:15;;;;;;;2.83;0.73;;;15.40;99.90;;;;;;5070401;28;20083;-62
2022/10/08 13:10:41;;;;;;;2.83;0.70;;;15.40;99.90;;;;;;5070738;28;20121;-63